Main page
METAR-TAF:

METAR-TAF

Airports :

Burgos Airport

Burgos, Spain

latitude: 42-22N, longitude: 003-38W, elevation: 894 m

Current weather observation

The report was made 19 minutes ago, at 23:30 UTC
Wind 4 kt from the South/Southeast
Temperature 7°C
Humidity 100%
Pressure 1026 hPa
Visibility 10 km or more
no clouds below 1500 m and no cumulonimbus

METAR: LEBG 282330Z AUTO 16004KT CAVOK 07/07 Q1026

Time: 00:49 (23:49 UTC)


TAF: missing

Weather observations and forecasts of more than 4000 airports (METAR and TAF reports).

The available stations are represented by yellow and red dots on the map.

Hover mouse over dot to see the name of the station.

Then click to see weather observations and forecasts.

To change the map : click on the green buttons with a black cross to zoom in, on the green button with a dash to zoom out, or on the green arrows for adjacent maps.


METAR-TAF: